Baltica — 9HA2607 — position and weather

sailwx.info

Track history (hours):
 
Tides and Currents Weather Stations Pressure Air Temp Water Temp Dewpoint Dewpoint Depression Visibility Wind Speed Wind Dir Waves Ship Positions

Baltica

Last reported at 2015-May-27 09:21 UTC. Time now 2015-May-27 09:55 UTC.
Position N 53°18' E 004°36'.

Length 157 m; draft 6.8 m.

Type: Ship (hazmat cat A). MMSI: 215013000.

Date/timePositionNaut miles runAvg speedWind from/ knotsBaromVisibWave heightAir tempDewpointWater temp
2015-May-27 09:21N 53°18' E 004°36'1012.0
2015-May-27 08:30N 53°09' E 004°29'5011.8
2015-May-27 04:16N 52°30' E 003°37'1111.8
2015-May-27 03:21N 52°20' E 003°32'1011.9
2015-May-27 02:30N 52°10' E 003°28'1112.0
2015-May-27 01:33N 51°59' E 003°24'1211.6
2015-May-27 00:33N 51°48' E 003°16'1211.6
2015-May-26 23:33N 51°37' E 003°11'1111.5
2015-May-26 22:33N 51°28' E 002°59'1010.1
2015-May-26 21:33N 51°24' E 002°45'1515.5
2015-May-26 20:34N 51°23' E 003°09'2 2.2
2015-May-26 19:32N 51°21' E 003°11'0 0.0
2015-May-26 18:32N 51°21' E 003°11'0 0.0
2015-May-26 17:29N 51°21' E 003°11'0 0.0
2015-May-26 16:29N 51°21' E 003°11'0 0.0
2015-May-26 15:32N 51°21' E 003°11'0 0.0
2015-May-26 14:32N 51°21' E 003°11'0 0.0
2015-May-26 13:32N 51°21' E 003°11'0 0.0
2015-May-26 12:32N 51°21' E 003°11'0 0.0
2015-May-26 11:32N 51°21' E 003°11'0 0.0
2015-May-26 10:29N 51°21' E 003°11'0 0.0
2015-May-26 09:29N 51°21' E 003°11'0 0.0
2015-May-26 08:32N 51°21' E 003°11'0 0.0
2015-May-26 07:32N 51°21' E 003°11'0 0.0
2015-May-26 06:32N 51°21' E 003°11'0 0.0
2015-May-26 05:32N 51°21' E 003°11'0 0.0
2015-May-26 04:32N 51°21' E 003°11'0 0.0
2015-May-26 03:32N 51°21' E 003°11'0 0.0
2015-May-26 02:32N 51°21' E 003°11'0 0.0
2015-May-26 01:32N 51°21' E 003°11'0 0.0
2015-May-26 00:29N 51°21' E 003°11'0 0.0
2015-May-25 23:32N 51°21' E 003°11'0 0.0
2015-May-25 22:34N 51°21' E 003°11'3 2.6
2015-May-25 21:33N 51°24' E 003°10'1616.2
2015-May-25 20:33N 51°26' E 003°35'1110.6
2015-May-25 19:33N 51°21' E 003°50'9 9.1
2015-May-25 18:34N 51°22' E 004°05'9 8.8
2015-May-25 17:33N 51°18' E 004°17'2 2.2
2015-May-25 16:33N 51°16' E 004°17'1 1.3
2015-May-25 15:33N 51°16' E 004°15'0 0.0
2015-May-25 14:32N 51°16' E 004°15'0 0.0
2015-May-25 13:32N 51°16' E 004°15'0 0.0
2015-May-25 12:32N 51°16' E 004°15'0 0.0
2015-May-25 11:32N 51°16' E 004°15'0 0.0
2015-May-25 10:32N 51°16' E 004°15'0 0.0
2015-May-25 09:32N 51°16' E 004°15'0 0.0
2015-May-25 08:26N 51°16' E 004°15'0 0.0
2015-May-25 07:32N 51°16' E 004°15'0 0.0
2015-May-25 06:17N 51°16' E 004°15'0 0.0
2015-May-25 05:32N 51°16' E 004°15'0 0.0
2015-May-25 04:29N 51°16' E 004°15'0 0.0
2015-May-25 03:26N 51°16' E 004°15'0 0.0
2015-May-25 02:32N 51°16' E 004°15'0 0.0
2015-May-25 01:32N 51°16' E 004°15'1 1.3
2015-May-25 00:33N 51°16' E 004°17'1 1.4
2015-May-24 23:34N 51°16' E 004°19'9 8.7
2015-May-24 22:34N 51°23' E 004°09'9 8.8
2015-May-24 21:32N 51°22' E 003°55'1111.7
2015-May-24 20:33N 51°26' E 003°37'1010.3
2015-May-24 19:33N 51°33' E 003°25'1313.0
2015-May-24 18:33N 51°44' E 003°13'1211.9
2015-May-24 17:31N 51°56' E 003°19'1111.3
2015-May-24 16:33N 52°07' E 003°22'1111.5
2015-May-24 15:33N 52°18' E 003°24'1211.8
2015-May-24 14:33N 52°29' E 003°28'1211.9
2015-May-24 13:33N 52°40' E 003°36'1212.2
2015-May-24 12:33N 52°50' E 003°48'1212.0
2015-May-24 11:32N 52°59' E 004°02'1312.1
2015-May-24 10:30N 53°07' E 004°17'2311.7
2015-May-24 08:33N 53°28' E 004°34'1312.0
2015-May-24 07:30N 53°40' E 004°41'1212.1
2015-May-24 06:29N 53°51' E 004°47'1312.2
2015-May-24 05:27N 54°03' E 004°54'1112.1
2015-May-24 04:33N 54°13' E 005°02'28011.0
2015-May-23 03:12N 57°48' E 010°22'710.6
2015-May-23 02:33N 57°49' E 010°35'1110.2
2015-May-23 01:30N 57°45' E 010°53'1111.5
2015-May-23 00:33N 57°37' E 011°08'1111.4
2015-May-22 23:34N 57°30' E 011°24'1211.8
2015-May-22 22:33N 57°19' E 011°33'1211.6
2015-May-22 21:33N 57°08' E 011°40'1211.9
2015-May-22 20:33N 56°57' E 011°48'1211.6
2015-May-22 19:33N 56°46' E 011°55'1211.7
2015-May-22 18:33N 56°34' E 011°60'1211.9
2015-May-22 17:33N 56°23' E 012°04'1111.0
2015-May-22 16:33N 56°14' E 012°16'1211.5
2015-May-22 15:33N 56°07' E 012°33'1211.7
2015-May-22 14:33N 55°57' E 012°43'1111.2
2015-May-22 13:33N 55°46' E 012°42'9 9.3
2015-May-22 12:33N 55°36' E 012°42'8 7.9
2015-May-22 11:33N 55°29' E 012°42'1111.2
2015-May-22 10:34N 55°17' E 012°44'1312.5
2015-May-22 09:33N 55°16' E 013°06'1612.5
2015-May-22 08:18N 55°15' E 013°34'912.7
2015-May-22 07:33N 55°14' E 013°50'1313.0
2015-May-22 06:33N 55°14' E 014°13'1312.6
2015-May-22 05:30N 55°23' E 014°29'1212.7
2015-May-22 04:33N 55°31' E 014°45'1312.9
2015-May-22 03:33N 55°37' E 015°05'1312.8
2015-May-22 02:31N 55°44' E 015°26'9712.2
2015-May-21 18:32N 56°58' E 017°18'1212.7
2015-May-21 17:33N 57°10' E 017°26'1312.8
2015-May-21 16:32N 57°22' E 017°35'1212.5
2015-May-21 15:32N 57°33' E 017°46'  
Track history (hours):
 
Tides and Currents Weather Stations Pressure Air Temp Water Temp Dewpoint Dewpoint Depression Visibility Wind Speed Wind Dir Waves Ship Positions

Baltica

Last reported at 2015-May-27 09:21 UTC. Time now 2015-May-27 09:55 UTC.
Position N 53°18' E 004°36'.

Length 157 m; draft 6.8 m.

Type: Ship (hazmat cat A). MMSI: 215013000.

Date/timePositionNaut miles runAvg speedWind from/ knotsBaromVisibWave heightAir tempDewpointWater temp
2015-May-27 09:21N 53°18' E 004°36'1012.0
2015-May-27 08:30N 53°09' E 004°29'5011.8
2015-May-27 04:16N 52°30' E 003°37'1111.8
2015-May-27 03:21N 52°20' E 003°32'1011.9
2015-May-27 02:30N 52°10' E 003°28'1112.0
2015-May-27 01:33N 51°59' E 003°24'1211.6
2015-May-27 00:33N 51°48' E 003°16'1211.6
2015-May-26 23:33N 51°37' E 003°11'1111.5
2015-May-26 22:33N 51°28' E 002°59'1010.1
2015-May-26 21:33N 51°24' E 002°45'1515.5
2015-May-26 20:34N 51°23' E 003°09'2 2.2
2015-May-26 19:32N 51°21' E 003°11'0 0.0
2015-May-26 18:32N 51°21' E 003°11'0 0.0
2015-May-26 17:29N 51°21' E 003°11'0 0.0
2015-May-26 16:29N 51°21' E 003°11'0 0.0
2015-May-26 15:32N 51°21' E 003°11'0 0.0
2015-May-26 14:32N 51°21' E 003°11'0 0.0
2015-May-26 13:32N 51°21' E 003°11'0 0.0
2015-May-26 12:32N 51°21' E 003°11'0 0.0
2015-May-26 11:32N 51°21' E 003°11'0 0.0
2015-May-26 10:29N 51°21' E 003°11'0 0.0
2015-May-26 09:29N 51°21' E 003°11'0 0.0
2015-May-26 08:32N 51°21' E 003°11'0 0.0
2015-May-26 07:32N 51°21' E 003°11'0 0.0
2015-May-26 06:32N 51°21' E 003°11'0 0.0
2015-May-26 05:32N 51°21' E 003°11'0 0.0
2015-May-26 04:32N 51°21' E 003°11'0 0.0
2015-May-26 03:32N 51°21' E 003°11'0 0.0
2015-May-26 02:32N 51°21' E 003°11'0 0.0
2015-May-26 01:32N 51°21' E 003°11'0 0.0
2015-May-26 00:29N 51°21' E 003°11'0 0.0
2015-May-25 23:32N 51°21' E 003°11'0 0.0
2015-May-25 22:34N 51°21' E 003°11'3 2.6
2015-May-25 21:33N 51°24' E 003°10'1616.2
2015-May-25 20:33N 51°26' E 003°35'1110.6
2015-May-25 19:33N 51°21' E 003°50'9 9.1
2015-May-25 18:34N 51°22' E 004°05'9 8.8
2015-May-25 17:33N 51°18' E 004°17'2 2.2
2015-May-25 16:33N 51°16' E 004°17'1 1.3
2015-May-25 15:33N 51°16' E 004°15'0 0.0
2015-May-25 14:32N 51°16' E 004°15'0 0.0
2015-May-25 13:32N 51°16' E 004°15'0 0.0
2015-May-25 12:32N 51°16' E 004°15'0 0.0
2015-May-25 11:32N 51°16' E 004°15'0 0.0
2015-May-25 10:32N 51°16' E 004°15'0 0.0
2015-May-25 09:32N 51°16' E 004°15'0 0.0
2015-May-25 08:26N 51°16' E 004°15'0 0.0
2015-May-25 07:32N 51°16' E 004°15'0 0.0
2015-May-25 06:17N 51°16' E 004°15'0 0.0
2015-May-25 05:32N 51°16' E 004°15'0 0.0
2015-May-25 04:29N 51°16' E 004°15'0 0.0
2015-May-25 03:26N 51°16' E 004°15'0 0.0
2015-May-25 02:32N 51°16' E 004°15'0 0.0
2015-May-25 01:32N 51°16' E 004°15'1 1.3
2015-May-25 00:33N 51°16' E 004°17'1 1.4
2015-May-24 23:34N 51°16' E 004°19'9 8.7
2015-May-24 22:34N 51°23' E 004°09'9 8.8
2015-May-24 21:32N 51°22' E 003°55'1111.7
2015-May-24 20:33N 51°26' E 003°37'1010.3
2015-May-24 19:33N 51°33' E 003°25'1313.0
2015-May-24 18:33N 51°44' E 003°13'1211.9
2015-May-24 17:31N 51°56' E 003°19'1111.3
2015-May-24 16:33N 52°07' E 003°22'1111.5
2015-May-24 15:33N 52°18' E 003°24'1211.8
2015-May-24 14:33N 52°29' E 003°28'1211.9
2015-May-24 13:33N 52°40' E 003°36'1212.2
2015-May-24 12:33N 52°50' E 003°48'1212.0
2015-May-24 11:32N 52°59' E 004°02'1312.1
2015-May-24 10:30N 53°07' E 004°17'2311.7
2015-May-24 08:33N 53°28' E 004°34'1312.0
2015-May-24 07:30N 53°40' E 004°41'1212.1
2015-May-24 06:29N 53°51' E 004°47'1312.2
2015-May-24 05:27N 54°03' E 004°54'1112.1
2015-May-24 04:33N 54°13' E 005°02'28011.0
2015-May-23 03:12N 57°48' E 010°22'710.6
2015-May-23 02:33N 57°49' E 010°35'1110.2
2015-May-23 01:30N 57°45' E 010°53'1111.5
2015-May-23 00:33N 57°37' E 011°08'1111.4
2015-May-22 23:34N 57°30' E 011°24'1211.8
2015-May-22 22:33N 57°19' E 011°33'1211.6
2015-May-22 21:33N 57°08' E 011°40'1211.9
2015-May-22 20:33N 56°57' E 011°48'1211.6
2015-May-22 19:33N 56°46' E 011°55'1211.7
2015-May-22 18:33N 56°34' E 011°60'1211.9
2015-May-22 17:33N 56°23' E 012°04'1111.0
2015-May-22 16:33N 56°14' E 012°16'1211.5
2015-May-22 15:33N 56°07' E 012°33'1211.7
2015-May-22 14:33N 55°57' E 012°43'1111.2
2015-May-22 13:33N 55°46' E 012°42'9 9.3
2015-May-22 12:33N 55°36' E 012°42'8 7.9
2015-May-22 11:33N 55°29' E 012°42'1111.2
2015-May-22 10:34N 55°17' E 012°44'1312.5
2015-May-22 09:33N 55°16' E 013°06'1612.5
2015-May-22 08:18N 55°15' E 013°34'912.7
2015-May-22 07:33N 55°14' E 013°50'1313.0
2015-May-22 06:33N 55°14' E 014°13'1312.6
2015-May-22 05:30N 55°23' E 014°29'1212.7
2015-May-22 04:33N 55°31' E 014°45'1312.9
2015-May-22 03:33N 55°37' E 015°05'1312.8
2015-May-22 02:31N 55°44' E 015°26'9712.2
2015-May-21 18:32N 56°58' E 017°18'1212.7
2015-May-21 17:33N 57°10' E 017°26'1312.8
2015-May-21 16:32N 57°22' E 017°35'1212.5
2015-May-21 15:32N 57°33' E 017°46'  

Dump ship's entire track history